sensor_id;sensor_type;location;lat;lon;timestamp;pressure;altitude;pressure_sealevel;temperature;humidity
23361;BME280;11852;50.082;18.554;2023-09-19T00:00:21;97904.51;;;21.1;72.44
23361;BME280;11852;50.082;18.554;2023-09-19T00:01:26;97900.5;;;21.08;72.52
23361;BME280;11852;50.082;18.554;2023-09-19T00:02:30;97900.0;;;21.08;72.49
23361;BME280;11852;50.082;18.554;2023-09-19T00:03:38;97899.0;;;21.07;72.39
23361;BME280;11852;50.082;18.554;2023-09-19T00:04:43;97898.5;;;21.06;72.65
23361;BME280;11852;50.082;18.554;2023-09-19T00:05:47;97898.0;;;21.08;72.43
23361;BME280;11852;50.082;18.554;2023-09-19T00:06:52;97897.5;;;21.08;72.26
23361;BME280;11852;50.082;18.554;2023-09-19T00:07:57;97895.0;;;21.09;72.22
23361;BME280;11852;50.082;18.554;2023-09-19T00:09:02;97894.0;;;21.09;72.24
23361;BME280;11852;50.082;18.554;2023-09-19T00:10:07;97893.0;;;21.1;72.24
23361;BME280;11852;50.082;18.554;2023-09-19T00:11:12;97894.0;;;21.09;72.21
23361;BME280;11852;50.082;18.554;2023-09-19T00:12:16;97890.0;;;21.1;72.13
23361;BME280;11852;50.082;18.554;2023-09-19T00:13:21;97888.0;;;21.09;72.13
23361;BME280;11852;50.082;18.554;2023-09-19T00:14:26;97888.0;;;21.03;72.25
23361;BME280;11852;50.082;18.554;2023-09-19T00:15:35;97886.0;;;21.05;72.26
23361;BME280;11852;50.082;18.554;2023-09-19T00:16:35;97887.5;;;21.02;72.29
23361;BME280;11852;50.082;18.554;2023-09-19T00:17:40;97885.5;;;21.01;72.33
23361;BME280;11852;50.082;18.554;2023-09-19T00:18:45;97885.0;;;21.01;72.35
23361;BME280;11852;50.082;18.554;2023-09-19T00:19:49;97886.5;;;21.01;72.49
23361;BME280;11852;50.082;18.554;2023-09-19T00:20:57;97889.0;;;21.05;72.5
23361;BME280;11852;50.082;18.554;2023-09-19T00:22:02;97885.0;;;21.06;72.5
23361;BME280;11852;50.082;18.554;2023-09-19T00:23:07;97886.5;;;21.03;72.69
23361;BME280;11852;50.082;18.554;2023-09-19T00:24:12;97885.5;;;21.02;72.8
23361;BME280;11852;50.082;18.554;2023-09-19T00:25:16;97885.5;;;21.02;72.95
23361;BME280;11852;50.082;18.554;2023-09-19T00:26:21;97882.0;;;21.02;73.12
23361;BME280;11852;50.082;18.554;2023-09-19T00:27:26;97879.51;;;21.02;73.35
23361;BME280;11852;50.082;18.554;2023-09-19T00:28:31;97881.0;;;21.05;73.43
23361;BME280;11852;50.082;18.554;2023-09-19T00:29:35;97878.5;;;21.01;73.54
23361;BME280;11852;50.082;18.554;2023-09-19T00:30:42;97875.5;;;21.01;73.49
23361;BME280;11852;50.082;18.554;2023-09-19T00:31:45;97877.5;;;21.05;73.35
23361;BME280;11852;50.082;18.554;2023-09-19T00:32:50;97877.0;;;21.08;73.23
23361;BME280;11852;50.082;18.554;2023-09-19T00:33:54;97871.5;;;21.05;73.26
23361;BME280;11852;50.082;18.554;2023-09-19T00:34:59;97870.49;;;21.04;73.32
23361;BME280;11852;50.082;18.554;2023-09-19T00:36:04;97866.0;;;21.03;73.17
23361;BME280;11852;50.082;18.554;2023-09-19T00:37:09;97866.5;;;21.05;73.18
23361;BME280;11852;50.082;18.554;2023-09-19T00:38:14;97866.5;;;21.06;73.16
23361;BME280;11852;50.082;18.554;2023-09-19T00:39:18;97861.5;;;21.03;73.21
23361;BME280;11852;50.082;18.554;2023-09-19T00:40:23;97860.5;;;21.03;73.15
23361;BME280;11852;50.082;18.554;2023-09-19T00:41:33;97859.5;;;21.03;73.13
23361;BME280;11852;50.082;18.554;2023-09-19T00:42:39;97861.5;;;21.02;73.14
23361;BME280;11852;50.082;18.554;2023-09-19T00:43:43;97864.0;;;21.05;73.0
23361;BME280;11852;50.082;18.554;2023-09-19T00:44:48;97863.5;;;20.99;73.26
23361;BME280;11852;50.082;18.554;2023-09-19T00:45:53;97867.0;;;21.1;72.85
23361;BME280;11852;50.082;18.554;2023-09-19T00:46:57;97865.5;;;21.03;73.53
23361;BME280;11852;50.082;18.554;2023-09-19T00:48:02;97861.5;;;21.0;73.63
23361;BME280;11852;50.082;18.554;2023-09-19T00:49:07;97862.5;;;21.02;73.57
23361;BME280;11852;50.082;18.554;2023-09-19T00:50:12;97862.0;;;21.01;73.64
23361;BME280;11852;50.082;18.554;2023-09-19T00:51:16;97861.5;;;21.05;73.53
23361;BME280;11852;50.082;18.554;2023-09-19T00:52:21;97860.0;;;21.04;73.44
23361;BME280;11852;50.082;18.554;2023-09-19T00:53:26;97856.99;;;21.06;73.42
23361;BME280;11852;50.082;18.554;2023-09-19T00:54:31;97854.0;;;21.05;73.44
23361;BME280;11852;50.082;18.554;2023-09-19T00:55:36;97855.5;;;21.08;73.33
23361;BME280;11852;50.082;18.554;2023-09-19T00:56:40;97851.0;;;21.07;73.38
23361;BME280;11852;50.082;18.554;2023-09-19T00:57:45;97852.5;;;21.08;73.36
23361;BME280;11852;50.082;18.554;2023-09-19T00:58:50;97849.0;;;21.1;73.25
23361;BME280;11852;50.082;18.554;2023-09-19T00:59:55;97849.0;;;21.1;73.18
23361;BME280;11852;50.082;18.554;2023-09-19T01:01:05;97850.0;;;21.09;73.25
23361;BME280;11852;50.082;18.554;2023-09-19T01:02:10;97849.5;;;21.08;73.43
23361;BME280;11852;50.082;18.554;2023-09-19T01:03:15;97847.5;;;21.09;73.47
23361;BME280;11852;50.082;18.554;2023-09-19T01:04:19;97847.5;;;21.06;73.65
23361;BME280;11852;50.082;18.554;2023-09-19T01:05:24;97841.5;;;21.02;73.85
23361;BME280;11852;50.082;18.554;2023-09-19T01:06:30;97844.49;;;21.02;73.81
23361;BME280;11852;50.082;18.554;2023-09-19T01:07:34;97842.5;;;21.01;73.93
23361;BME280;11852;50.082;18.554;2023-09-19T01:08:39;97843.0;;;21.06;73.69
23361;BME280;11852;50.082;18.554;2023-09-19T01:09:43;97840.5;;;21.02;73.82
23361;BME280;11852;50.082;18.554;2023-09-19T01:10:52;97840.5;;;21.01;73.73
23361;BME280;11852;50.082;18.554;2023-09-19T01:11:58;97842.5;;;21.01;73.75
23361;BME280;11852;50.082;18.554;2023-09-19T01:18:02;97835.5;;;21.04;73.65
23361;BME280;11852;50.082;18.554;2023-09-19T01:21:29;97830.01;;;20.98;73.82
23361;BME280;11852;50.082;18.554;2023-09-19T01:30:02;97824.5;;;21.09;74.04
23361;BME280;11852;50.082;18.554;2023-09-19T01:30:58;97825.0;;;21.06;74.24
23361;BME280;11852;50.082;18.554;2023-09-19T01:32:04;97819.5;;;21.02;74.99
23361;BME280;11852;50.082;18.554;2023-09-19T01:33:08;97818.5;;;21.01;75.33
23361;BME280;11852;50.082;18.554;2023-09-19T01:34:16;97818.0;;;21.03;75.29
23361;BME280;11852;50.082;18.554;2023-09-19T01:35:21;97813.0;;;21.24;74.28
23361;BME280;11852;50.082;18.554;2023-09-19T01:36:29;97816.0;;;21.31;74.22
23361;BME280;11852;50.082;18.554;2023-09-19T01:37:36;97815.5;;;21.34;74.31
23361;BME280;11852;50.082;18.554;2023-09-19T01:38:41;97815.5;;;21.28;74.68
23361;BME280;11852;50.082;18.554;2023-09-19T01:39:46;97816.5;;;21.33;74.5
23361;BME280;11852;50.082;18.554;2023-09-19T01:41:01;97813.0;;;21.3;74.68
23361;BME280;11852;50.082;18.554;2023-09-19T01:43:22;97814.5;;;21.28;74.89
23361;BME280;11852;50.082;18.554;2023-09-19T01:44:35;97813.0;;;21.35;74.7
23361;BME280;11852;50.082;18.554;2023-09-19T01:45:45;97812.0;;;21.39;74.65
23361;BME280;11852;50.082;18.554;2023-09-19T01:46:49;97815.0;;;21.39;74.67
23361;BME280;11852;50.082;18.554;2023-09-19T01:47:56;97813.5;;;21.35;75.01
23361;BME280;11852;50.082;18.554;2023-09-19T01:52:43;97817.5;;;21.3;75.3
23361;BME280;11852;50.082;18.554;2023-09-19T01:54:56;97821.0;;;21.28;75.46
23361;BME280;11852;50.082;18.554;2023-09-19T01:55:59;97819.0;;;21.24;75.53
23361;BME280;11852;50.082;18.554;2023-09-19T01:57:10;97819.5;;;21.16;75.72
23361;BME280;11852;50.082;18.554;2023-09-19T01:58:16;97824.0;;;21.1;75.89
23361;BME280;11852;50.082;18.554;2023-09-19T01:59:24;97827.0;;;21.16;75.57
23361;BME280;11852;50.082;18.554;2023-09-19T02:00:26;97828.0;;;21.19;75.54
23361;BME280;11852;50.082;18.554;2023-09-19T02:01:31;97829.51;;;21.17;75.4
23361;BME280;11852;50.082;18.554;2023-09-19T02:02:36;97832.49;;;21.26;75.01
23361;BME280;11852;50.082;18.554;2023-09-19T02:03:41;97830.01;;;21.33;74.89
23361;BME280;11852;50.082;18.554;2023-09-19T02:04:46;97830.5;;;21.37;74.77
23361;BME280;11852;50.082;18.554;2023-09-19T02:05:51;97830.5;;;21.42;74.68
23361;BME280;11852;50.082;18.554;2023-09-19T02:06:55;97829.0;;;21.28;75.22
23361;BME280;11852;50.082;18.554;2023-09-19T02:08:00;97828.5;;;21.35;74.88
23361;BME280;11852;50.082;18.554;2023-09-19T02:09:05;97827.0;;;21.26;75.31
23361;BME280;11852;50.082;18.554;2023-09-19T02:10:10;97826.5;;;21.2;75.58
23361;BME280;11852;50.082;18.554;2023-09-19T02:11:14;97826.0;;;21.19;75.47
23361;BME280;11852;50.082;18.554;2023-09-19T02:12:19;97825.0;;;21.15;75.71
23361;BME280;11852;50.082;18.554;2023-09-19T02:13:24;97823.5;;;21.15;75.67
23361;BME280;11852;50.082;18.554;2023-09-19T02:14:29;97822.0;;;21.14;75.77
23361;BME280;11852;50.082;18.554;2023-09-19T02:15:33;97826.0;;;21.28;75.28
23361;BME280;11852;50.082;18.554;2023-09-19T02:16:38;97826.0;;;21.32;75.13
23361;BME280;11852;50.082;18.554;2023-09-19T02:17:43;97824.5;;;21.24;75.5
23361;BME280;11852;50.082;18.554;2023-09-19T02:18:48;97823.5;;;21.22;75.65
23361;BME280;11852;50.082;18.554;2023-09-19T02:19:53;97824.5;;;21.17;76.01
23361;BME280;11852;50.082;18.554;2023-09-19T02:20:57;97825.0;;;21.15;76.13
23361;BME280;11852;50.082;18.554;2023-09-19T02:22:02;97826.0;;;21.22;75.86
23361;BME280;11852;50.082;18.554;2023-09-19T02:23:07;97826.0;;;21.26;75.78
23361;BME280;11852;50.082;18.554;2023-09-19T02:24:12;97826.5;;;21.32;75.64
23361;BME280;11852;50.082;18.554;2023-09-19T02:25:16;97827.5;;;21.35;75.54
23361;BME280;11852;50.082;18.554;2023-09-19T02:26:21;97827.0;;;21.33;75.71
23361;BME280;11852;50.082;18.554;2023-09-19T02:27:26;97829.0;;;21.33;75.88
23361;BME280;11852;50.082;18.554;2023-09-19T02:28:31;97827.5;;;21.38;75.95
23361;BME280;11852;50.082;18.554;2023-09-19T02:29:35;97828.5;;;21.38;75.86
23361;BME280;11852;50.082;18.554;2023-09-19T02:30:43;97828.0;;;21.36;76.16
23361;BME280;11852;50.082;18.554;2023-09-19T02:31:47;97831.0;;;21.41;76.02
23361;BME280;11852;50.082;18.554;2023-09-19T02:32:52;97826.5;;;21.41;76.16
23361;BME280;11852;50.082;18.554;2023-09-19T02:33:57;97830.5;;;21.45;75.97
23361;BME280;11852;50.082;18.554;2023-09-19T02:35:02;97829.0;;;21.44;76.07
23361;BME280;11852;50.082;18.554;2023-09-19T02:36:07;97830.0;;;21.4;76.32
23361;BME280;11852;50.082;18.554;2023-09-19T02:37:12;97830.01;;;21.36;76.41
23361;BME280;11852;50.082;18.554;2023-09-19T02:38:16;97828.0;;;21.32;76.75
23361;BME280;11852;50.082;18.554;2023-09-19T02:39:21;97827.0;;;21.35;76.68
23361;BME280;11852;50.082;18.554;2023-09-19T02:40:26;97833.5;;;21.38;76.65
23361;BME280;11852;50.082;18.554;2023-09-19T02:41:31;97831.0;;;21.29;77.06
23361;BME280;11852;50.082;18.554;2023-09-19T02:42:36;97831.0;;;21.28;77.03
23361;BME280;11852;50.082;18.554;2023-09-19T02:43:40;97829.0;;;21.34;76.84
23361;BME280;11852;50.082;18.554;2023-09-19T02:44:45;97828.0;;;21.31;77.12
23361;BME280;11852;50.082;18.554;2023-09-19T02:45:50;97828.0;;;21.27;77.23
23361;BME280;11852;50.082;18.554;2023-09-19T02:46:55;97822.0;;;21.26;77.39
23361;BME280;11852;50.082;18.554;2023-09-19T02:48:00;97822.0;;;21.27;77.38
23361;BME280;11852;50.082;18.554;2023-09-19T02:49:07;97820.49;;;21.27;77.29
23361;BME280;11852;50.082;18.554;2023-09-19T02:50:12;97821.0;;;21.28;77.24
23361;BME280;11852;50.082;18.554;2023-09-19T02:51:17;97819.0;;;21.33;77.04
23361;BME280;11852;50.082;18.554;2023-09-19T02:52:22;97820.0;;;21.36;77.05
23361;BME280;11852;50.082;18.554;2023-09-19T02:53:26;97819.99;;;21.33;77.48
23361;BME280;11852;50.082;18.554;2023-09-19T02:54:31;97820.0;;;21.35;77.4
23361;BME280;11852;50.082;18.554;2023-09-19T02:55:36;97822.0;;;21.3;77.65
23361;BME280;11852;50.082;18.554;2023-09-19T02:56:41;97821.5;;;21.32;77.72
23361;BME280;11852;50.082;18.554;2023-09-19T02:57:49;97822.5;;;21.35;77.6
23361;BME280;11852;50.082;18.554;2023-09-19T02:58:54;97823.0;;;21.38;77.4
23361;BME280;11852;50.082;18.554;2023-09-19T02:59:59;97823.0;;;21.39;77.58
23361;BME280;11852;50.082;18.554;2023-09-19T03:01:09;97823.5;;;21.44;77.58
23361;BME280;11852;50.082;18.554;2023-09-19T03:02:13;97825.5;;;21.46;77.65
23361;BME280;11852;50.082;18.554;2023-09-19T03:03:18;97824.0;;;21.47;77.59
23361;BME280;11852;50.082;18.554;2023-09-19T03:04:23;97825.5;;;21.49;77.54
23361;BME280;11852;50.082;18.554;2023-09-19T03:05:28;97825.0;;;21.49;77.58
23361;BME280;11852;50.082;18.554;2023-09-19T03:06:33;97823.5;;;21.44;77.74
23361;BME280;11852;50.082;18.554;2023-09-19T03:07:40;97823.0;;;21.44;77.61
23361;BME280;11852;50.082;18.554;2023-09-19T03:08:45;97821.5;;;21.44;77.54
23361;BME280;11852;50.082;18.554;2023-09-19T03:09:50;97822.5;;;21.45;77.52
23361;BME280;11852;50.082;18.554;2023-09-19T03:10:54;97823.5;;;21.42;77.69
23361;BME280;11852;50.082;18.554;2023-09-19T03:11:59;97824.0;;;21.45;77.78
23361;BME280;11852;50.082;18.554;2023-09-19T03:13:04;97824.0;;;21.48;77.72
23361;BME280;11852;50.082;18.554;2023-09-19T03:14:09;97823.0;;;21.5;77.69
23361;BME280;11852;50.082;18.554;2023-09-19T03:15:14;97820.0;;;21.47;78.3
23361;BME280;11852;50.082;18.554;2023-09-19T03:16:18;97822.0;;;21.47;78.57
23361;BME280;11852;50.082;18.554;2023-09-19T03:17:23;97821.5;;;21.48;78.81
23361;BME280;11852;50.082;18.554;2023-09-19T03:18:28;97817.01;;;21.45;79.54
23361;BME280;11852;50.082;18.554;2023-09-19T03:19:33;97818.0;;;21.44;80.51
23361;BME280;11852;50.082;18.554;2023-09-19T03:20:37;97819.5;;;21.41;80.83
23361;BME280;11852;50.082;18.554;2023-09-19T03:21:42;97816.0;;;21.4;80.97
23361;BME280;11852;50.082;18.554;2023-09-19T03:22:47;97813.0;;;21.14;83.2
23361;BME280;11852;50.082;18.554;2023-09-19T03:23:52;97811.0;;;21.14;82.94
23361;BME280;11852;50.082;18.554;2023-09-19T03:25:00;97809.0;;;21.19;82.77
23361;BME280;11852;50.082;18.554;2023-09-19T03:26:04;97807.99;;;21.17;83.29
23361;BME280;11852;50.082;18.554;2023-09-19T03:27:10;97808.5;;;21.12;83.68
23361;BME280;11852;50.082;18.554;2023-09-19T03:28:14;97811.5;;;21.1;83.97
23361;BME280;11852;50.082;18.554;2023-09-19T03:29:19;97811.5;;;21.06;84.15
23361;BME280;11852;50.082;18.554;2023-09-19T03:30:24;97807.99;;;21.02;84.34
23361;BME280;11852;50.082;18.554;2023-09-19T03:31:29;97808.5;;;20.99;84.48
23361;BME280;11852;50.082;18.554;2023-09-19T03:32:37;97809.5;;;20.97;84.67
23361;BME280;11852;50.082;18.554;2023-09-19T03:33:41;97809.0;;;20.98;84.66
23361;BME280;11852;50.082;18.554;2023-09-19T03:34:46;97804.0;;;21.08;84.24
23361;BME280;11852;50.082;18.554;2023-09-19T03:35:54;97807.0;;;21.22;83.57
23361;BME280;11852;50.082;18.554;2023-09-19T03:36:58;97804.5;;;21.03;84.48
23361;BME280;11852;50.082;18.554;2023-09-19T03:38:03;97807.99;;;21.15;83.99
23361;BME280;11852;50.082;18.554;2023-09-19T03:39:08;97806.99;;;21.14;84.12
23361;BME280;11852;50.082;18.554;2023-09-19T03:40:13;97811.0;;;21.21;84.23
23361;BME280;11852;50.082;18.554;2023-09-19T03:41:17;97809.0;;;21.21;84.19
23361;BME280;11852;50.082;18.554;2023-09-19T03:42:22;97809.5;;;21.08;85.22
23361;BME280;11852;50.082;18.554;2023-09-19T03:43:27;97808.5;;;21.08;85.38
23361;BME280;11852;50.082;18.554;2023-09-19T03:44:32;97810.5;;;21.03;85.64
23361;BME280;11852;50.082;18.554;2023-09-19T03:45:37;97810.0;;;21.11;84.85
23361;BME280;11852;50.082;18.554;2023-09-19T03:46:41;97810.0;;;21.14;84.64
23361;BME280;11852;50.082;18.554;2023-09-19T03:47:49;97809.0;;;21.16;84.63
23361;BME280;11852;50.082;18.554;2023-09-19T03:48:53;97809.0;;;21.17;84.67
23361;BME280;11852;50.082;18.554;2023-09-19T03:49:58;97810.0;;;21.2;84.57
23361;BME280;11852;50.082;18.554;2023-09-19T03:51:03;97812.5;;;21.15;84.66
23361;BME280;11852;50.082;18.554;2023-09-19T03:52:08;97814.5;;;21.15;84.72
23361;BME280;11852;50.082;18.554;2023-09-19T03:53:13;97813.5;;;21.13;84.49
23361;BME280;11852;50.082;18.554;2023-09-19T03:54:18;97814.5;;;21.11;84.51
23361;BME280;11852;50.082;18.554;2023-09-19T03:55:22;97813.5;;;20.97;85.7
23361;BME280;11852;50.082;18.554;2023-09-19T03:56:27;97817.0;;;20.89;85.79
23361;BME280;11852;50.082;18.554;2023-09-19T03:57:32;97816.5;;;20.83;86.01
23361;BME280;11852;50.082;18.554;2023-09-19T03:58:37;97815.0;;;20.76;86.12
23361;BME280;11852;50.082;18.554;2023-09-19T03:59:41;97815.5;;;20.84;85.46
23361;BME280;11852;50.082;18.554;2023-09-19T04:00:46;97813.0;;;20.76;85.54
23361;BME280;11852;50.082;18.554;2023-09-19T04:01:51;97811.0;;;20.68;86.18
23361;BME280;11852;50.082;18.554;2023-09-19T04:02:56;97811.0;;;20.71;86.01
23361;BME280;11852;50.082;18.554;2023-09-19T04:04:01;97812.0;;;20.7;86.05
23361;BME280;11852;50.082;18.554;2023-09-19T04:05:05;97811.5;;;20.83;85.33
23361;BME280;11852;50.082;18.554;2023-09-19T04:06:10;97814.0;;;20.76;86.21
23361;BME280;11852;50.082;18.554;2023-09-19T04:07:15;97816.5;;;20.85;85.6
23361;BME280;11852;50.082;18.554;2023-09-19T04:08:20;97815.5;;;20.78;86.19
23361;BME280;11852;50.082;18.554;2023-09-19T04:09:24;97821.5;;;20.9;85.47
23361;BME280;11852;50.082;18.554;2023-09-19T04:10:27;97821.5;;;20.9;85.47
23361;BME280;11852;50.082;18.554;2023-09-19T04:11:33;97824.0;;;20.9;85.47
23361;BME280;11852;50.082;18.554;2023-09-19T04:12:37;97827.5;;;20.99;85.12
23361;BME280;11852;50.082;18.554;2023-09-19T04:13:42;97826.0;;;20.98;85.26
23361;BME280;11852;50.082;18.554;2023-09-19T04:14:47;97828.0;;;20.8;86.28
23361;BME280;11852;50.082;18.554;2023-09-19T04:15:51;97828.0;;;20.85;85.99
23361;BME280;11852;50.082;18.554;2023-09-19T04:16:56;97830.0;;;20.85;86.0
23361;BME280;11852;50.082;18.554;2023-09-19T04:18:01;97832.0;;;20.84;86.16
23361;BME280;11852;50.082;18.554;2023-09-19T04:19:06;97832.0;;;20.75;85.82
23361;BME280;11852;50.082;18.554;2023-09-19T04:20:11;97836.0;;;20.7;85.84
23361;BME280;11852;50.082;18.554;2023-09-19T04:21:15;97836.5;;;20.67;86.31
23361;BME280;11852;50.082;18.554;2023-09-19T04:22:20;97841.0;;;20.73;86.08
23361;BME280;11852;50.082;18.554;2023-09-19T04:23:25;97843.5;;;20.7;86.06
23361;BME280;11852;50.082;18.554;2023-09-19T04:24:30;97844.0;;;20.8;85.48
23361;BME280;11852;50.082;18.554;2023-09-19T04:25:34;97842.0;;;20.91;84.93
23361;BME280;11852;50.082;18.554;2023-09-19T04:26:39;97840.5;;;20.8;85.79
23361;BME280;11852;50.082;18.554;2023-09-19T04:27:44;97837.5;;;20.8;85.82
23361;BME280;11852;50.082;18.554;2023-09-19T04:28:49;97836.5;;;20.97;84.81
23361;BME280;11852;50.082;18.554;2023-09-19T04:29:53;97837.5;;;20.85;85.72
23361;BME280;11852;50.082;18.554;2023-09-19T04:30:58;97837.5;;;20.81;85.35
23361;BME280;11852;50.082;18.554;2023-09-19T04:32:03;97836.0;;;20.53;86.21
23361;BME280;11852;50.082;18.554;2023-09-19T04:33:08;97833.0;;;20.52;86.53
23361;BME280;11852;50.082;18.554;2023-09-19T04:34:16;97837.0;;;20.42;85.71
23361;BME280;11852;50.082;18.554;2023-09-19T04:35:21;97835.5;;;20.49;85.64
23361;BME280;11852;50.082;18.554;2023-09-19T04:36:26;97833.5;;;20.38;85.73
23361;BME280;11852;50.082;18.554;2023-09-19T04:37:31;97835.5;;;20.37;85.63
23361;BME280;11852;50.082;18.554;2023-09-19T04:38:35;97835.5;;;20.26;85.57
23361;BME280;11852;50.082;18.554;2023-09-19T04:39:40;97837.0;;;20.28;85.14
23361;BME280;11852;50.082;18.554;2023-09-19T04:40:45;97832.5;;;20.37;85.11
23361;BME280;11852;50.082;18.554;2023-09-19T04:41:50;97840.5;;;20.49;84.42
23361;BME280;11852;50.082;18.554;2023-09-19T04:42:57;97838.5;;;20.42;84.92
23361;BME280;11852;50.082;18.554;2023-09-19T04:44:02;97837.0;;;20.39;84.82
23361;BME280;11852;50.082;18.554;2023-09-19T04:45:07;97837.5;;;20.37;84.83
23361;BME280;11852;50.082;18.554;2023-09-19T04:46:12;97839.5;;;20.4;84.77
23361;BME280;11852;50.082;18.554;2023-09-19T04:47:17;97839.5;;;20.35;85.13
23361;BME280;11852;50.082;18.554;2023-09-19T04:48:25;97842.01;;;20.31;85.01
23361;BME280;11852;50.082;18.554;2023-09-19T04:49:29;97841.0;;;20.3;84.66
23361;BME280;11852;50.082;18.554;2023-09-19T04:50:34;97845.49;;;20.22;85.22
23361;BME280;11852;50.082;18.554;2023-09-19T04:51:39;97849.5;;;20.19;84.64
23361;BME280;11852;50.082;18.554;2023-09-19T04:52:44;97847.0;;;19.83;86.32
23361;BME280;11852;50.082;18.554;2023-09-19T04:53:48;97852.0;;;19.91;85.31
23361;BME280;11852;50.082;18.554;2023-09-19T04:54:53;97853.0;;;19.83;86.12
23361;BME280;11852;50.082;18.554;2023-09-19T04:55:58;97856.49;;;19.87;85.92
23361;BME280;11852;50.082;18.554;2023-09-19T04:57:03;97855.5;;;19.85;86.08
23361;BME280;11852;50.082;18.554;2023-09-19T04:58:08;97857.49;;;19.8;86.45
23361;BME280;11852;50.082;18.554;2023-09-19T04:59:13;97863.5;;;19.86;86.01
23361;BME280;11852;50.082;18.554;2023-09-19T05:00:20;97863.5;;;19.61;86.67
23361;BME280;11852;50.082;18.554;2023-09-19T05:01:22;97863.5;;;19.72;85.99
23361;BME280;11852;50.082;18.554;2023-09-19T05:02:29;97866.5;;;19.73;85.91
23361;BME280;11852;50.082;18.554;2023-09-19T05:03:32;97865.0;;;19.64;85.97
23361;BME280;11852;50.082;18.554;2023-09-19T05:04:37;97868.5;;;19.6;84.79
23361;BME280;11852;50.082;18.554;2023-09-19T05:05:41;97871.0;;;19.65;84.46
23361;BME280;11852;50.082;18.554;2023-09-19T05:06:46;97869.0;;;19.67;84.43
23361;BME280;11852;50.082;18.554;2023-09-19T05:07:51;97870.49;;;19.67;84.69
23361;BME280;11852;50.082;18.554;2023-09-19T05:08:56;97872.0;;;19.67;84.42
23361;BME280;11852;50.082;18.554;2023-09-19T05:10:01;97876.5;;;19.71;84.11
23361;BME280;11852;50.082;18.554;2023-09-19T05:11:05;97876.5;;;19.61;84.65
23361;BME280;11852;50.082;18.554;2023-09-19T05:12:10;97879.0;;;19.56;84.61
23361;BME280;11852;50.082;18.554;2023-09-19T05:13:15;97882.49;;;19.56;84.29
23361;BME280;11852;50.082;18.554;2023-09-19T05:14:20;97884.5;;;19.57;84.32
23361;BME280;11852;50.082;18.554;2023-09-19T05:15:25;97886.5;;;19.63;83.76
23361;BME280;11852;50.082;18.554;2023-09-19T05:16:29;97884.5;;;19.74;83.43
23361;BME280;11852;50.082;18.554;2023-09-19T05:17:34;97884.5;;;19.67;83.81
23361;BME280;11852;50.082;18.554;2023-09-19T05:18:39;97889.0;;;19.69;83.85
23361;BME280;11852;50.082;18.554;2023-09-19T05:19:43;97890.0;;;19.64;84.02
23361;BME280;11852;50.082;18.554;2023-09-19T05:20:48;97887.5;;;19.6;84.07
23361;BME280;11852;50.082;18.554;2023-09-19T05:21:53;97887.5;;;19.49;84.38
23361;BME280;11852;50.082;18.554;2023-09-19T05:23:01;97887.5;;;19.46;84.83
23361;BME280;11852;50.082;18.554;2023-09-19T05:24:05;97887.0;;;19.45;85.07
23361;BME280;11852;50.082;18.554;2023-09-19T05:25:10;97888.5;;;19.55;84.57
23361;BME280;11852;50.082;18.554;2023-09-19T05:26:15;97890.5;;;19.52;84.88
23361;BME280;11852;50.082;18.554;2023-09-19T05:27:20;97887.0;;;19.52;85.01
23361;BME280;11852;50.082;18.554;2023-09-19T05:28:25;97887.0;;;19.51;85.21
23361;BME280;11852;50.082;18.554;2023-09-19T05:29:29;97890.5;;;19.27;85.87
23361;BME280;11852;50.082;18.554;2023-09-19T05:30:35;97894.5;;;19.23;86.15
23361;BME280;11852;50.082;18.554;2023-09-19T05:31:39;97893.01;;;19.23;85.9
23361;BME280;11852;50.082;18.554;2023-09-19T05:32:44;97894.5;;;19.41;85.24
23361;BME280;11852;50.082;18.554;2023-09-19T05:33:48;97890.5;;;19.48;85.01
23361;BME280;11852;50.082;18.554;2023-09-19T05:34:53;97892.01;;;19.4;84.93
23361;BME280;11852;50.082;18.554;2023-09-19T05:35:58;97891.0;;;19.27;85.4
23361;BME280;11852;50.082;18.554;2023-09-19T05:37:03;97891.0;;;19.33;84.49
23361;BME280;11852;50.082;18.554;2023-09-19T05:38:08;97892.51;;;19.28;84.87
23361;BME280;11852;50.082;18.554;2023-09-19T05:39:12;97892.01;;;19.36;84.1
23361;BME280;11852;50.082;18.554;2023-09-19T05:40:18;97896.5;;;19.31;84.71
23361;BME280;11852;50.082;18.554;2023-09-19T05:41:23;97894.5;;;19.44;83.61
23361;BME280;11852;50.082;18.554;2023-09-19T05:42:27;97896.5;;;19.43;83.59
23361;BME280;11852;50.082;18.554;2023-09-19T05:43:32;97894.5;;;19.23;85.26
23361;BME280;11852;50.082;18.554;2023-09-19T05:44:37;97900.0;;;19.17;84.9
23361;BME280;11852;50.082;18.554;2023-09-19T05:45:41;97898.0;;;19.06;85.17
23361;BME280;11852;50.082;18.554;2023-09-19T05:46:46;97897.5;;;19.05;85.36
23361;BME280;11852;50.082;18.554;2023-09-19T05:47:51;97901.0;;;19.04;85.44
23361;BME280;11852;50.082;18.554;2023-09-19T05:48:59;97903.5;;;19.08;85.25
23361;BME280;11852;50.082;18.554;2023-09-19T05:50:03;97902.0;;;19.01;85.57
23361;BME280;11852;50.082;18.554;2023-09-19T05:51:08;97908.5;;;19.08;85.38
23361;BME280;11852;50.082;18.554;2023-09-19T05:52:13;97906.99;;;19.15;85.21
23361;BME280;11852;50.082;18.554;2023-09-19T05:53:18;97911.0;;;19.14;85.44
23361;BME280;11852;50.082;18.554;2023-09-19T05:54:23;97906.0;;;19.21;85.32
23361;BME280;11852;50.082;18.554;2023-09-19T05:55:27;97912.0;;;19.28;85.04
23361;BME280;11852;50.082;18.554;2023-09-19T05:56:32;97912.5;;;19.01;86.46
23361;BME280;11852;50.082;18.554;2023-09-19T05:57:37;97919.5;;;18.92;86.83
23361;BME280;11852;50.082;18.554;2023-09-19T05:58:42;97917.0;;;18.97;86.58
23361;BME280;11852;50.082;18.554;2023-09-19T05:59:46;97921.0;;;18.99;86.88
23361;BME280;11852;50.082;18.554;2023-09-19T06:00:51;97921.5;;;18.96;86.97
23361;BME280;11852;50.082;18.554;2023-09-19T06:01:56;97921.0;;;19.01;86.78
23361;BME280;11852;50.082;18.554;2023-09-19T06:03:01;97925.0;;;18.99;87.12
23361;BME280;11852;50.082;18.554;2023-09-19T06:04:06;97927.5;;;18.79;87.94
23361;BME280;11852;50.082;18.554;2023-09-19T06:05:10;97925.0;;;18.66;88.24